createdAt,value
2018-09-06T00:01:49.806Z,14.70
2018-09-06T00:04:17.792Z,14.70
2018-09-06T00:06:45.727Z,14.70
2018-09-06T00:09:13.602Z,14.60
2018-09-06T00:11:41.475Z,14.60
2018-09-06T00:14:09.406Z,14.60
2018-09-06T00:16:37.281Z,14.50
2018-09-06T00:19:05.439Z,14.40
2018-09-06T00:21:33.475Z,14.40
2018-09-06T00:24:01.389Z,14.40
2018-09-06T00:26:29.378Z,14.30
2018-09-06T00:28:57.248Z,14.30
2018-09-06T00:31:25.159Z,14.30
2018-09-06T00:33:53.151Z,14.30
2018-09-06T00:36:21.061Z,14.40
2018-09-06T00:38:49.029Z,14.40
2018-09-06T00:41:16.947Z,14.30
2018-09-06T00:43:44.928Z,14.30
2018-09-06T00:46:12.856Z,14.30
2018-09-06T00:48:40.845Z,14.30
2018-09-06T00:51:08.788Z,14.10
2018-09-06T00:53:36.804Z,14.00
2018-09-06T00:56:04.768Z,13.80
2018-09-06T00:58:32.777Z,13.90
2018-09-06T01:01:00.692Z,13.90
2018-09-06T01:03:28.591Z,13.80
2018-09-06T01:05:56.502Z,13.80
2018-09-06T01:08:24.391Z,13.70
2018-09-06T01:10:52.319Z,13.80
2018-09-06T01:13:20.278Z,13.90
2018-09-06T01:15:48.237Z,13.90
2018-09-06T01:18:16.137Z,14.00
2018-09-06T01:20:43.964Z,13.90
2018-09-06T01:23:11.840Z,13.90
2018-09-06T01:25:45.675Z,14.00
2018-09-06T01:28:13.501Z,14.00
2018-09-06T01:30:41.494Z,13.80
2018-09-06T01:33:09.441Z,13.90
2018-09-06T01:35:41.627Z,13.80
2018-09-06T01:38:09.536Z,13.80
2018-09-06T01:40:37.481Z,13.80
2018-09-06T01:43:05.704Z,13.80
2018-09-06T01:45:33.813Z,13.90
2018-09-06T01:48:01.639Z,13.90
2018-09-06T01:50:29.703Z,14.00
2018-09-06T01:52:57.746Z,14.00
2018-09-06T01:55:25.944Z,14.00
2018-09-06T01:57:53.900Z,13.90
2018-09-06T02:00:21.820Z,13.80
2018-09-06T02:02:49.715Z,13.70
2018-09-06T02:05:23.359Z,13.60
2018-09-06T02:07:51.333Z,13.50
2018-09-06T02:10:19.301Z,13.50
2018-09-06T02:12:47.249Z,13.40
2018-09-06T02:15:15.604Z,13.40
2018-09-06T02:17:43.457Z,13.40
2018-09-06T02:20:11.459Z,13.40
2018-09-06T02:22:39.589Z,13.40
2018-09-06T02:25:07.612Z,13.40
2018-09-06T02:27:35.850Z,13.40
2018-09-06T02:30:04.551Z,13.30
2018-09-06T02:32:32.547Z,13.30
2018-09-06T02:35:00.584Z,13.20
2018-09-06T02:37:28.667Z,13.20
2018-09-06T02:39:56.578Z,13.20
2018-09-06T02:42:24.447Z,13.10
2018-09-06T02:44:52.858Z,13.10
2018-09-06T02:47:20.897Z,13.10
2018-09-06T02:49:54.490Z,13.10
2018-09-06T02:52:22.492Z,13.10
2018-09-06T02:54:50.549Z,13.10
2018-09-06T02:57:18.570Z,13.00
2018-09-06T02:59:46.873Z,13.10
2018-09-06T03:02:14.771Z,13.20
2018-09-06T03:04:42.959Z,13.20
2018-09-06T03:07:11.180Z,13.20
2018-09-06T03:09:39.207Z,13.20
2018-09-06T03:12:08.442Z,13.20
2018-09-06T03:14:36.420Z,13.20
2018-09-06T03:17:04.333Z,13.20
2018-09-06T03:19:32.193Z,13.30
2018-09-06T03:22:00.284Z,13.30
2018-09-06T03:24:28.370Z,13.30
2018-09-06T03:26:56.316Z,13.30
2018-09-06T03:29:24.438Z,13.20
2018-09-06T03:31:52.401Z,13.20
2018-09-06T03:34:20.388Z,13.30
2018-09-06T03:36:48.510Z,13.30
2018-09-06T03:39:16.514Z,13.40
2018-09-06T03:41:44.424Z,13.30
2018-09-06T03:44:12.425Z,13.30
2018-09-06T03:46:40.465Z,13.20
2018-09-06T03:49:08.417Z,13.20
2018-09-06T03:51:36.452Z,13.10
2018-09-06T03:54:04.473Z,13.10
2018-09-06T03:56:32.399Z,13.00
2018-09-06T03:59:00.403Z,13.00
2018-09-06T04:01:28.392Z,12.90
2018-09-06T04:03:56.377Z,12.80
2018-09-06T04:06:24.291Z,12.80
2018-09-06T04:08:52.252Z,12.70
2018-09-06T04:11:20.214Z,12.70
2018-09-06T04:13:48.191Z,12.70
2018-09-06T04:16:16.193Z,12.60
2018-09-06T04:18:44.148Z,12.60
2018-09-06T04:21:12.054Z,12.60
2018-09-06T04:23:40.136Z,12.50
2018-09-06T04:26:08.191Z,12.60
2018-09-06T04:28:36.096Z,12.50
2018-09-06T04:31:04.167Z,12.50
2018-09-06T04:33:32.237Z,12.50
2018-09-06T04:36:00.243Z,12.50
2018-09-06T04:38:29.026Z,12.50
2018-09-06T04:40:57.083Z,12.50
2018-09-06T04:43:25.048Z,12.40
2018-09-06T04:45:53.564Z,12.40
2018-09-06T04:48:21.444Z,12.40
2018-09-06T04:50:49.439Z,12.50
2018-09-06T04:53:17.379Z,12.50
2018-09-06T04:55:45.372Z,12.40
2018-09-06T04:58:13.356Z,12.40
2018-09-06T05:00:41.343Z,12.50
2018-09-06T05:03:09.466Z,12.50
2018-09-06T05:05:37.606Z,12.50
2018-09-06T05:08:05.601Z,12.50
2018-09-06T05:10:33.545Z,12.50
2018-09-06T05:13:01.480Z,12.60
2018-09-06T05:15:29.537Z,12.60
2018-09-06T05:17:57.590Z,12.70
2018-09-06T05:20:25.609Z,12.60
2018-09-06T05:22:53.617Z,12.60
2018-09-06T05:25:21.571Z,12.70
2018-09-06T05:27:49.483Z,12.70
2018-09-06T05:30:17.493Z,12.80
2018-09-06T05:32:45.584Z,12.80
2018-09-06T05:35:13.573Z,12.90
2018-09-06T05:37:41.599Z,13.00
2018-09-06T05:40:09.498Z,13.00
2018-09-06T05:42:37.438Z,13.10
2018-09-06T05:45:05.843Z,13.10
2018-09-06T05:47:33.845Z,13.10
2018-09-06T05:50:01.881Z,13.10
2018-09-06T05:52:29.845Z,13.10
2018-09-06T05:54:57.953Z,13.10
2018-09-06T05:57:25.986Z,13.20
2018-09-06T05:59:54.044Z,13.30
2018-09-06T06:02:22.025Z,13.30
2018-09-06T06:04:49.944Z,13.40
2018-09-06T06:07:17.918Z,13.50
2018-09-06T06:09:46.042Z,13.60
2018-09-06T06:12:14.216Z,13.90
2018-09-06T06:14:42.357Z,14.20
2018-09-06T06:17:10.155Z,14.80
2018-09-06T06:19:38.237Z,15.20
2018-09-06T06:22:06.165Z,15.70
2018-09-06T06:24:34.168Z,16.10
2018-09-06T06:27:02.233Z,16.50
2018-09-06T06:29:30.189Z,16.90
2018-09-06T06:31:58.215Z,17.20
2018-09-06T06:34:26.106Z,17.50
2018-09-06T06:36:54.080Z,17.70
2018-09-06T06:39:22.149Z,17.90
2018-09-06T06:41:50.081Z,18.30
2018-09-06T06:44:18.096Z,18.60
2018-09-06T06:46:46.081Z,18.70
2018-09-06T06:49:14.034Z,18.90
2018-09-06T06:51:42.040Z,19.20
2018-09-06T06:54:10.217Z,19.50
2018-09-06T06:56:38.243Z,19.80
2018-09-06T06:59:06.151Z,20.00
2018-09-06T07:01:34.451Z,20.00
2018-09-06T07:04:02.425Z,20.20
2018-09-06T07:06:30.402Z,20.40
2018-09-06T07:08:58.392Z,20.70
2018-09-06T07:11:26.373Z,20.80
2018-09-06T07:13:54.521Z,20.90
2018-09-06T07:16:22.537Z,21.00
2018-09-06T07:18:50.562Z,21.30
2018-09-06T07:21:18.605Z,21.40
2018-09-06T07:23:46.544Z,21.60
2018-09-06T07:26:14.533Z,21.90
2018-09-06T07:28:42.406Z,22.10
2018-09-06T07:31:10.403Z,22.20
2018-09-06T07:33:38.476Z,22.40
2018-09-06T07:36:06.491Z,22.60
2018-09-06T07:38:34.481Z,22.80
2018-09-06T07:41:02.366Z,23.00
2018-09-06T07:43:30.268Z,23.00
2018-09-06T07:45:58.300Z,23.30
2018-09-06T07:48:26.479Z,23.40
2018-09-06T07:50:54.548Z,23.60
2018-09-06T07:53:22.615Z,23.70
2018-09-06T07:55:50.632Z,23.80
2018-09-06T07:58:18.595Z,24.00
2018-09-06T08:00:46.595Z,24.20
2018-09-06T08:03:14.549Z,24.40
2018-09-06T08:05:42.812Z,24.50
2018-09-06T08:08:11.023Z,24.60
2018-09-06T08:10:38.994Z,24.60
2018-09-06T08:13:07.054Z,24.60
2018-09-06T08:15:35.025Z,24.80
2018-09-06T08:18:03.078Z,24.80
2018-09-06T08:20:31.047Z,25.00
2018-09-06T08:22:59.057Z,25.10
2018-09-06T08:25:27.093Z,25.20
2018-09-06T08:27:55.155Z,25.40
2018-09-06T08:30:22.576Z,25.50
2018-09-06T08:32:49.820Z,25.60
2018-09-06T08:35:17.270Z,25.80
2018-09-06T08:37:44.602Z,25.80
2018-09-06T08:40:11.904Z,25.80
2018-09-06T08:42:39.162Z,25.70
2018-09-06T08:45:06.453Z,25.80
2018-09-06T08:47:33.739Z,25.80
2018-09-06T08:50:01.073Z,25.90
2018-09-06T08:52:28.377Z,25.90
2018-09-06T08:54:55.590Z,26.00
2018-09-06T08:57:22.861Z,26.10
2018-09-06T08:59:50.044Z,26.10
2018-09-06T09:02:17.504Z,26.10
2018-09-06T09:04:44.666Z,26.10
2018-09-06T09:07:11.941Z,26.00
2018-09-06T09:09:39.143Z,26.00
2018-09-06T09:12:06.464Z,26.00
2018-09-06T09:14:33.809Z,25.90
2018-09-06T09:17:01.194Z,25.50
2018-09-06T09:19:28.442Z,25.50
2018-09-06T09:21:55.805Z,25.50
2018-09-06T09:24:23.254Z,25.50
2018-09-06T09:26:50.484Z,25.50
2018-09-06T09:29:17.791Z,25.50
2018-09-06T09:31:45.013Z,25.50
2018-09-06T09:34:12.349Z,25.50
2018-09-06T09:36:39.623Z,25.60
2018-09-06T09:39:07.696Z,25.70
2018-09-06T09:41:34.960Z,25.70
2018-09-06T09:44:02.325Z,25.70
2018-09-06T09:51:23.098Z,25.80
2018-09-06T09:53:50.471Z,25.80
2018-09-06T09:56:17.790Z,25.90
2018-09-06T09:58:45.155Z,25.80
2018-09-06T10:01:12.513Z,25.80
2018-09-06T10:03:45.743Z,25.80
2018-09-06T10:07:20.633Z,25.80
2018-09-06T10:09:48.400Z,25.90
2018-09-06T10:12:15.754Z,25.70
2018-09-06T10:14:43.052Z,25.70
2018-09-06T10:17:10.405Z,25.70
2018-09-06T10:19:37.793Z,25.40
2018-09-06T10:22:05.121Z,25.40
2018-09-06T10:24:32.346Z,25.40
2018-09-06T10:26:59.630Z,25.50
2018-09-06T10:29:27.210Z,25.60
2018-09-06T10:31:54.568Z,25.60
2018-09-06T10:34:21.873Z,25.60
2018-09-06T10:36:49.225Z,25.60
2018-09-06T10:39:16.611Z,25.70
2018-09-06T10:41:43.920Z,25.70
2018-09-06T10:44:11.304Z,25.60
2018-09-06T10:46:39.274Z,25.70
2018-09-06T10:49:06.607Z,25.70
2018-09-06T10:51:34.994Z,25.80
2018-09-06T10:54:02.363Z,25.90
2018-09-06T10:56:29.737Z,26.00
2018-09-06T10:58:57.161Z,26.10
2018-09-06T11:01:25.312Z,26.30
2018-09-06T11:03:54.338Z,26.50
2018-09-06T11:06:21.663Z,26.60
2018-09-06T11:08:48.780Z,26.70
2018-09-06T11:11:16.594Z,26.70
2018-09-06T11:13:44.203Z,26.90
2018-09-06T11:16:12.219Z,26.90
2018-09-06T11:18:39.964Z,26.90
2018-09-06T11:21:07.681Z,27.00
2018-09-06T11:23:35.336Z,27.00
2018-09-06T11:26:03.195Z,27.00
2018-09-06T11:28:30.911Z,27.00
2018-09-06T11:30:58.770Z,27.00
2018-09-06T11:33:26.893Z,27.10
2018-09-06T11:35:54.616Z,27.20
2018-09-06T11:38:22.470Z,27.30
2018-09-06T11:40:50.091Z,27.40
2018-09-06T11:43:18.264Z,27.50
2018-09-06T11:45:46.183Z,27.50
2018-09-06T11:48:13.792Z,27.60
2018-09-06T11:50:41.952Z,27.60
2018-09-06T11:53:09.783Z,27.60
2018-09-06T11:55:37.456Z,27.60
2018-09-06T11:58:05.217Z,27.40
2018-09-06T12:00:34.611Z,27.30
2018-09-06T12:03:02.521Z,27.20
2018-09-06T12:05:30.515Z,27.30
2018-09-06T12:07:58.135Z,27.50
2018-09-06T12:10:25.868Z,27.70
2018-09-06T12:12:53.616Z,27.80
2018-09-06T12:15:21.684Z,27.80
2018-09-06T12:17:49.272Z,27.70
2018-09-06T12:20:17.277Z,27.50
2018-09-06T12:22:48.641Z,27.30
2018-09-06T12:25:16.466Z,27.10
2018-09-06T12:27:49.656Z,27.00
2018-09-06T12:30:17.434Z,26.80
2018-09-06T12:32:45.141Z,26.70
2018-09-06T12:35:12.878Z,26.70
2018-09-06T12:37:40.453Z,26.80
2018-09-06T12:40:08.340Z,27.00
2018-09-06T12:42:36.083Z,27.30
2018-09-06T12:45:03.854Z,27.50
2018-09-06T12:47:31.765Z,27.70
2018-09-06T12:49:59.713Z,27.90
2018-09-06T12:52:27.405Z,28.00
2018-09-06T12:54:55.151Z,28.00
2018-09-06T12:57:22.820Z,27.90
2018-09-06T12:59:50.511Z,27.80
2018-09-06T13:02:18.292Z,27.80
2018-09-06T13:04:46.111Z,27.80
2018-09-06T13:07:14.476Z,27.80
2018-09-06T13:09:42.225Z,27.80
2018-09-06T13:12:09.972Z,27.90
2018-09-06T13:14:37.628Z,27.80
2018-09-06T13:17:05.399Z,27.70
2018-09-06T13:19:33.489Z,27.70
2018-09-06T13:22:01.186Z,27.50
2018-09-06T13:24:28.787Z,27.40
2018-09-06T13:26:56.407Z,27.30
2018-09-06T13:29:24.147Z,27.20
2018-09-06T13:31:51.778Z,27.20
2018-09-06T13:34:19.455Z,27.10
2018-09-06T13:36:47.153Z,26.90
2018-09-06T13:39:14.977Z,26.80
2018-09-06T13:41:42.572Z,26.70
2018-09-06T13:44:10.283Z,26.60
2018-09-06T13:46:37.913Z,26.50
2018-09-06T13:49:05.619Z,26.40
2018-09-06T13:51:33.577Z,26.30
2018-09-06T13:54:01.285Z,26.30
2018-09-06T13:56:28.895Z,26.20
2018-09-06T13:58:57.327Z,26.20
2018-09-06T14:01:25.015Z,26.30
2018-09-06T14:03:52.734Z,26.40
2018-09-06T14:06:20.432Z,26.60
2018-09-06T14:08:48.404Z,26.50
2018-09-06T14:11:16.123Z,26.40
2018-09-06T14:13:44.025Z,26.40
2018-09-06T14:16:11.799Z,26.30
2018-09-06T14:18:39.931Z,26.40
2018-09-06T14:21:07.551Z,26.40
2018-09-06T14:23:35.229Z,26.50
2018-09-06T14:26:03.286Z,26.60
2018-09-06T14:28:30.910Z,26.70
2018-09-06T14:30:58.471Z,26.80
2018-09-06T14:33:26.010Z,26.80
2018-09-06T14:35:54.240Z,26.80
2018-09-06T14:38:22.537Z,26.70
2018-09-06T14:40:57.568Z,26.70
2018-09-06T14:43:26.220Z,26.70
2018-09-06T14:45:53.793Z,26.60
2018-09-06T14:48:21.567Z,26.60
2018-09-06T14:50:49.702Z,26.50
2018-09-06T14:53:17.365Z,26.60
2018-09-06T14:55:46.712Z,26.60
2018-09-06T14:58:14.680Z,26.70
2018-09-06T15:00:42.285Z,26.70
2018-09-06T15:03:10.193Z,26.70
2018-09-06T15:05:37.827Z,26.70
2018-09-06T15:08:05.787Z,26.80
2018-09-06T15:10:33.339Z,26.80
2018-09-06T15:13:00.935Z,26.80
2018-09-06T15:15:29.184Z,26.80
2018-09-06T15:17:56.930Z,26.80
2018-09-06T15:20:24.651Z,26.90
2018-09-06T15:22:52.344Z,27.00
2018-09-06T15:25:20.076Z,27.00
2018-09-06T15:27:47.680Z,27.00
2018-09-06T15:30:15.240Z,26.80
2018-09-06T15:32:42.867Z,26.70
2018-09-06T15:35:11.094Z,26.50
2018-09-06T15:37:38.771Z,26.40
2018-09-06T15:40:06.623Z,26.40
2018-09-06T15:42:34.796Z,26.40
2018-09-06T15:45:02.653Z,26.50
2018-09-06T15:47:30.261Z,26.60
2018-09-06T15:49:57.910Z,26.60
2018-09-06T15:52:25.567Z,26.60
2018-09-06T15:54:53.118Z,26.50
2018-09-06T15:57:20.895Z,26.40
2018-09-06T15:59:48.540Z,26.20
2018-09-06T16:02:16.180Z,26.00
2018-09-06T16:04:44.106Z,25.90
2018-09-06T16:07:11.762Z,25.90
2018-09-06T16:09:39.329Z,25.80
2018-09-06T16:12:06.956Z,25.70
2018-09-06T16:14:34.635Z,25.50
2018-09-06T16:17:02.511Z,25.50
2018-09-06T16:19:30.175Z,25.30
2018-09-06T16:21:58.349Z,25.20
2018-09-06T16:24:26.177Z,25.10
2018-09-06T16:26:54.493Z,25.00
2018-09-06T16:29:22.092Z,24.80
2018-09-06T16:31:49.717Z,24.70
2018-09-06T16:34:17.499Z,24.60
2018-09-06T16:36:45.237Z,24.50
2018-09-06T16:39:13.658Z,24.40
2018-09-06T16:41:41.794Z,24.30
2018-09-06T16:44:09.376Z,24.20
2018-09-06T16:46:37.363Z,24.10
2018-09-06T16:49:05.589Z,24.00
2018-09-06T16:51:33.186Z,23.90
2018-09-06T16:54:00.851Z,23.70
2018-09-06T16:56:28.489Z,23.60
2018-09-06T16:58:56.340Z,23.50
2018-09-06T17:01:23.917Z,23.40
2018-09-06T17:03:52.522Z,23.30
2018-09-06T17:06:21.350Z,23.30
2018-09-06T17:08:50.187Z,23.10
2018-09-06T17:11:17.868Z,23.10
2018-09-06T17:13:45.628Z,23.00
2018-09-06T17:16:13.310Z,22.90
2018-09-06T17:18:41.271Z,22.80
2018-09-06T17:21:09.264Z,22.80
2018-09-06T17:23:37.368Z,22.80
2018-09-06T17:26:06.594Z,22.70
2018-09-06T17:28:34.700Z,22.60
2018-09-06T17:31:02.898Z,22.50
2018-09-06T17:33:31.008Z,22.50
2018-09-06T17:35:59.197Z,22.50
2018-09-06T17:38:27.278Z,22.40
2018-09-06T17:40:55.271Z,22.30
2018-09-06T17:43:23.349Z,22.30
2018-09-06T17:45:51.613Z,22.30
2018-09-06T17:48:19.732Z,22.20
2018-09-06T17:50:47.853Z,22.10
2018-09-06T17:53:16.072Z,22.10
2018-09-06T17:55:44.105Z,22.00
2018-09-06T17:58:12.101Z,21.90
2018-09-06T18:00:48.581Z,21.90
2018-09-06T18:03:16.509Z,21.80
2018-09-06T18:05:44.618Z,21.80
2018-09-06T18:08:12.778Z,21.80
2018-09-06T18:10:41.116Z,21.70
2018-09-06T18:15:46.794Z,21.70
2018-09-06T18:18:14.482Z,21.60
2018-09-06T18:20:42.294Z,21.60
2018-09-06T18:23:10.026Z,21.60
2018-09-06T18:25:37.994Z,21.50
2018-09-06T18:28:05.684Z,21.50
2018-09-06T18:30:33.686Z,21.40
2018-09-06T18:33:01.512Z,21.40
2018-09-06T18:35:29.238Z,21.30
2018-09-06T18:37:56.899Z,21.30
2018-09-06T18:40:24.628Z,21.20
2018-09-06T18:42:52.429Z,21.20
2018-09-06T18:45:20.252Z,21.10
2018-09-06T18:47:47.948Z,21.10
2018-09-06T18:50:15.644Z,21.10
2018-09-06T18:52:43.419Z,21.00
2018-09-06T18:55:11.289Z,21.00
2018-09-06T18:57:39.026Z,21.00
2018-09-06T19:00:06.835Z,21.00
2018-09-06T19:02:34.708Z,21.00
2018-09-06T19:05:02.514Z,21.00
2018-09-06T19:07:30.244Z,21.00
2018-09-06T19:09:58.102Z,21.00
2018-09-06T19:12:25.806Z,21.00
2018-09-06T19:14:53.499Z,21.00
2018-09-06T19:17:21.184Z,20.90
2018-09-06T19:19:48.975Z,20.90
2018-09-06T19:22:16.665Z,20.90
2018-09-06T19:24:44.472Z,20.80
2018-09-06T19:27:12.154Z,20.80
2018-09-06T19:29:40.328Z,20.70
2018-09-06T19:32:08.157Z,20.60
2018-09-06T19:34:35.847Z,20.60
2018-09-06T19:37:03.622Z,20.60
2018-09-06T19:39:31.371Z,20.50
2018-09-06T19:41:59.135Z,20.50
2018-09-06T19:44:26.872Z,20.50
2018-09-06T19:46:54.880Z,20.50
2018-09-06T19:49:26.220Z,20.50
2018-09-06T19:51:54.010Z,20.50
2018-09-06T19:54:21.952Z,20.40
2018-09-06T19:56:49.709Z,20.40
2018-09-06T19:59:17.438Z,20.40
2018-09-06T20:01:45.117Z,20.30
2018-09-06T20:04:12.806Z,20.30
2018-09-06T20:06:40.502Z,20.20
2018-09-06T20:09:09.050Z,20.20
2018-09-06T20:11:37.087Z,20.20
2018-09-06T20:14:05.012Z,20.20
2018-09-06T20:16:32.903Z,20.20
2018-09-06T20:19:01.143Z,20.10
2018-09-06T20:21:29.412Z,20.10
2018-09-06T20:23:57.099Z,20.10
2018-09-06T20:26:24.765Z,20.00
2018-09-06T20:28:52.458Z,20.00
2018-09-06T20:31:20.171Z,20.00
2018-09-06T20:33:47.924Z,20.00
2018-09-06T20:36:15.550Z,20.00
2018-09-06T20:38:43.265Z,20.00
2018-09-06T20:41:11.004Z,20.00
2018-09-06T20:43:39.118Z,20.00
2018-09-06T20:46:06.848Z,20.00
2018-09-06T20:48:34.615Z,20.00
2018-09-06T20:51:02.376Z,20.00
2018-09-06T20:53:30.087Z,20.00
2018-09-06T20:55:57.710Z,20.00
2018-09-06T20:58:25.391Z,20.00
2018-09-06T21:00:53.501Z,20.00
2018-09-06T21:03:21.467Z,20.00
2018-09-06T21:05:49.169Z,20.00
2018-09-06T21:08:16.922Z,20.00
2018-09-06T21:10:44.665Z,19.90
2018-09-06T21:13:12.289Z,19.90
2018-09-06T21:15:40.299Z,19.90
2018-09-06T21:18:08.016Z,19.80
2018-09-06T21:20:35.678Z,19.80
2018-09-06T21:23:03.566Z,19.80
2018-09-06T21:25:31.252Z,19.80
2018-09-06T21:27:58.966Z,19.80
2018-09-06T21:30:26.640Z,19.70
2018-09-06T21:32:54.293Z,19.70
2018-09-06T21:35:21.926Z,19.70
2018-09-06T21:37:49.792Z,19.60
2018-09-06T21:40:17.520Z,19.60
2018-09-06T21:42:45.144Z,19.50
2018-09-06T21:45:12.806Z,19.60
2018-09-06T21:47:40.570Z,19.70
2018-09-06T21:50:08.331Z,19.60
2018-09-06T21:52:36.074Z,19.60
2018-09-06T21:55:03.726Z,19.60
2018-09-06T21:57:31.644Z,19.60
2018-09-06T21:59:59.430Z,19.60
2018-09-06T22:02:32.651Z,19.50
2018-09-06T22:05:00.425Z,19.50
2018-09-06T22:07:28.180Z,19.50
2018-09-06T22:09:55.864Z,19.40
2018-09-06T22:12:23.549Z,19.40
2018-09-06T22:14:51.219Z,19.40
2018-09-06T22:17:19.368Z,19.40
2018-09-06T22:19:47.521Z,19.40
2018-09-06T22:22:15.485Z,19.40
2018-09-06T22:24:43.566Z,19.40
2018-09-06T22:27:11.329Z,19.40
2018-09-06T22:29:39.055Z,19.40
2018-09-06T22:32:06.840Z,19.40
2018-09-06T22:34:34.572Z,19.30
2018-09-06T22:37:02.230Z,19.30
2018-09-06T22:39:29.939Z,19.20
2018-09-06T22:41:57.632Z,19.20
2018-09-06T22:44:25.364Z,19.20
2018-09-06T22:46:53.102Z,19.10
2018-09-06T22:49:21.891Z,19.10
2018-09-06T22:51:49.613Z,19.10
2018-09-06T22:54:17.362Z,19.00
2018-09-06T22:56:44.961Z,19.00
2018-09-06T22:59:12.753Z,18.90
2018-09-06T23:01:40.465Z,18.90
2018-09-06T23:04:08.159Z,18.90
2018-09-06T23:06:35.784Z,18.80
2018-09-06T23:09:04.353Z,18.90
2018-09-06T23:11:31.934Z,19.00
2018-09-06T23:13:59.529Z,19.00
2018-09-06T23:16:27.241Z,19.10
2018-09-06T23:18:54.853Z,19.20
2018-09-06T23:21:22.484Z,19.10
2018-09-06T23:23:50.067Z,19.00
2018-09-06T23:26:17.692Z,19.00
2018-09-06T23:28:45.497Z,19.00
2018-09-06T23:31:13.231Z,18.90
2018-09-06T23:33:40.787Z,18.90
2018-09-06T23:36:08.417Z,18.90
2018-09-06T23:38:35.987Z,19.00
2018-09-06T23:41:03.584Z,19.00
2018-09-06T23:43:31.294Z,19.00
2018-09-06T23:45:59.541Z,19.10
2018-09-06T23:48:28.888Z,19.10
2018-09-06T23:50:57.180Z,19.10
2018-09-06T23:53:25.765Z,19.10
2018-09-06T23:55:53.828Z,19.00
2018-09-06T23:58:21.557Z,19.00
